sensor_id;sensor_type;location;lat;lon;timestamp;temperature;humidity
909;DHT22;441;51.192;6.788;2022-11-20T00:00:20;20.70;57.50
909;DHT22;441;51.192;6.788;2022-11-20T00:02:47;20.70;57.40
909;DHT22;441;51.192;6.788;2022-11-20T00:05:13;20.80;57.50
909;DHT22;441;51.192;6.788;2022-11-20T00:07:41;20.80;57.40
909;DHT22;441;51.192;6.788;2022-11-20T00:10:08;20.70;57.30
909;DHT22;441;51.192;6.788;2022-11-20T00:12:36;20.80;57.40
909;DHT22;441;51.192;6.788;2022-11-20T00:15:03;20.70;57.30
909;DHT22;441;51.192;6.788;2022-11-20T00:17:30;20.70;57.30
909;DHT22;441;51.192;6.788;2022-11-20T00:19:57;20.70;57.30
909;DHT22;441;51.192;6.788;2022-11-20T00:22:24;20.70;57.40
909;DHT22;441;51.192;6.788;2022-11-20T00:24:51;20.70;56.70
909;DHT22;441;51.192;6.788;2022-11-20T00:27:18;20.60;56.70
909;DHT22;441;51.192;6.788;2022-11-20T00:29:46;20.70;56.60
909;DHT22;441;51.192;6.788;2022-11-20T00:32:13;20.70;56.60
909;DHT22;441;51.192;6.788;2022-11-20T00:34:40;20.80;56.50
909;DHT22;441;51.192;6.788;2022-11-20T00:37:07;20.80;56.40
909;DHT22;441;51.192;6.788;2022-11-20T00:39:33;20.90;56.30
909;DHT22;441;51.192;6.788;2022-11-20T00:42:00;20.80;56.20
909;DHT22;441;51.192;6.788;2022-11-20T00:44:27;20.90;56.20
909;DHT22;441;51.192;6.788;2022-11-20T00:46:55;20.90;56.20
909;DHT22;441;51.192;6.788;2022-11-20T00:49:22;20.80;56.40
909;DHT22;441;51.192;6.788;2022-11-20T00:51:49;20.80;56.60
909;DHT22;441;51.192;6.788;2022-11-20T00:54:16;20.80;56.60
909;DHT22;441;51.192;6.788;2022-11-20T00:56:42;20.70;56.70
909;DHT22;441;51.192;6.788;2022-11-20T00:59:09;20.70;56.70
909;DHT22;441;51.192;6.788;2022-11-20T01:01:37;20.60;56.70
909;DHT22;441;51.192;6.788;2022-11-20T01:04:05;20.50;56.70
909;DHT22;441;51.192;6.788;2022-11-20T01:06:33;20.50;56.90
909;DHT22;441;51.192;6.788;2022-11-20T01:09:02;20.50;57.00
909;DHT22;441;51.192;6.788;2022-11-20T01:11:31;20.40;57.00
909;DHT22;441;51.192;6.788;2022-11-20T01:13:59;20.40;57.10
909;DHT22;441;51.192;6.788;2022-11-20T01:16:28;20.40;57.20
909;DHT22;441;51.192;6.788;2022-11-20T01:18:57;20.30;57.20
909;DHT22;441;51.192;6.788;2022-11-20T01:21:28;20.30;57.30
909;DHT22;441;51.192;6.788;2022-11-20T01:23:55;20.30;58.00
909;DHT22;441;51.192;6.788;2022-11-20T01:26:23;20.20;57.50
909;DHT22;441;51.192;6.788;2022-11-20T01:28:50;20.30;57.60
909;DHT22;441;51.192;6.788;2022-11-20T01:31:19;20.20;57.70
909;DHT22;441;51.192;6.788;2022-11-20T01:33:48;20.20;57.80
909;DHT22;441;51.192;6.788;2022-11-20T01:36:16;20.20;57.90
909;DHT22;441;51.192;6.788;2022-11-20T01:38:44;20.20;58.00
909;DHT22;441;51.192;6.788;2022-11-20T01:41:13;20.20;58.00
909;DHT22;441;51.192;6.788;2022-11-20T01:44:02;20.10;58.00
909;DHT22;441;51.192;6.788;2022-11-20T01:46:28;20.10;58.10
909;DHT22;441;51.192;6.788;2022-11-20T01:48:58;20.10;58.80
909;DHT22;441;51.192;6.788;2022-11-20T01:51:31;20.10;58.30
909;DHT22;441;51.192;6.788;2022-11-20T01:54:03;20.00;58.30
909;DHT22;441;51.192;6.788;2022-11-20T01:56:34;20.00;58.30
909;DHT22;441;51.192;6.788;2022-11-20T01:59:05;20.00;58.40
909;DHT22;441;51.192;6.788;2022-11-20T02:01:33;20.00;58.50
909;DHT22;441;51.192;6.788;2022-11-20T02:04:01;20.00;58.60
909;DHT22;441;51.192;6.788;2022-11-20T02:06:30;20.00;58.60
909;DHT22;441;51.192;6.788;2022-11-20T02:09:00;19.90;58.50
909;DHT22;441;51.192;6.788;2022-11-20T02:11:29;19.90;58.60
909;DHT22;441;51.192;6.788;2022-11-20T02:13:57;19.90;58.60
909;DHT22;441;51.192;6.788;2022-11-20T02:16:24;19.90;58.70
909;DHT22;441;51.192;6.788;2022-11-20T02:18:53;19.90;58.80
909;DHT22;441;51.192;6.788;2022-11-20T02:21:27;19.90;58.80
909;DHT22;441;51.192;6.788;2022-11-20T02:24:04;19.90;58.90
909;DHT22;441;51.192;6.788;2022-11-20T02:26:35;19.80;58.80
909;DHT22;441;51.192;6.788;2022-11-20T02:29:04;19.80;58.90
909;DHT22;441;51.192;6.788;2022-11-20T02:31:37;19.80;58.90
909;DHT22;441;51.192;6.788;2022-11-20T02:34:04;19.80;58.90
909;DHT22;441;51.192;6.788;2022-11-20T02:36:33;19.80;59.00
909;DHT22;441;51.192;6.788;2022-11-20T02:39:03;19.80;59.00
909;DHT22;441;51.192;6.788;2022-11-20T02:41:34;19.80;59.00
909;DHT22;441;51.192;6.788;2022-11-20T02:44:01;19.80;59.10
909;DHT22;441;51.192;6.788;2022-11-20T02:46:28;19.80;59.10
909;DHT22;441;51.192;6.788;2022-11-20T02:48:55;19.80;59.20
909;DHT22;441;51.192;6.788;2022-11-20T02:51:22;19.80;59.20
909;DHT22;441;51.192;6.788;2022-11-20T02:53:49;19.80;59.20
909;DHT22;441;51.192;6.788;2022-11-20T02:56:18;19.70;59.10
909;DHT22;441;51.192;6.788;2022-11-20T02:58:45;19.70;59.20
909;DHT22;441;51.192;6.788;2022-11-20T03:01:12;19.70;59.20
909;DHT22;441;51.192;6.788;2022-11-20T03:03:39;19.70;59.20
909;DHT22;441;51.192;6.788;2022-11-20T03:06:06;19.70;59.20
909;DHT22;441;51.192;6.788;2022-11-20T03:08:33;19.70;59.20
909;DHT22;441;51.192;6.788;2022-11-20T03:11:03;19.70;59.30
909;DHT22;441;51.192;6.788;2022-11-20T03:13:32;19.70;59.80
909;DHT22;441;51.192;6.788;2022-11-20T03:16:04;19.70;59.30
909;DHT22;441;51.192;6.788;2022-11-20T03:18:31;19.70;59.40
909;DHT22;441;51.192;6.788;2022-11-20T03:20:58;19.60;59.30
909;DHT22;441;51.192;6.788;2022-11-20T03:23:25;19.60;59.30
909;DHT22;441;51.192;6.788;2022-11-20T03:25:52;19.60;59.40
909;DHT22;441;51.192;6.788;2022-11-20T03:28:19;19.60;59.40
909;DHT22;441;51.192;6.788;2022-11-20T03:30:47;19.60;59.40
909;DHT22;441;51.192;6.788;2022-11-20T03:33:14;19.60;59.50
909;DHT22;441;51.192;6.788;2022-11-20T03:35:41;19.60;59.50
909;DHT22;441;51.192;6.788;2022-11-20T03:38:07;19.60;59.40
909;DHT22;441;51.192;6.788;2022-11-20T03:40:34;19.60;59.50
909;DHT22;441;51.192;6.788;2022-11-20T03:43:02;19.60;59.50
909;DHT22;441;51.192;6.788;2022-11-20T03:45:28;19.50;59.50
909;DHT22;441;51.192;6.788;2022-11-20T03:47:57;19.50;59.50
909;DHT22;441;51.192;6.788;2022-11-20T03:50:23;19.50;59.50
909;DHT22;441;51.192;6.788;2022-11-20T03:52:50;19.50;59.50
909;DHT22;441;51.192;6.788;2022-11-20T03:55:17;19.50;59.50
909;DHT22;441;51.192;6.788;2022-11-20T03:57:44;19.50;59.60
909;DHT22;441;51.192;6.788;2022-11-20T04:00:12;19.50;59.60
909;DHT22;441;51.192;6.788;2022-11-20T04:02:39;19.50;59.60
909;DHT22;441;51.192;6.788;2022-11-20T04:05:08;19.50;59.60
909;DHT22;441;51.192;6.788;2022-11-20T04:07:35;19.50;59.60
909;DHT22;441;51.192;6.788;2022-11-20T04:10:02;19.50;59.60
909;DHT22;441;51.192;6.788;2022-11-20T04:12:32;19.50;59.70
909;DHT22;441;51.192;6.788;2022-11-20T04:14:59;19.50;60.30
909;DHT22;441;51.192;6.788;2022-11-20T04:17:26;19.50;59.70
909;DHT22;441;51.192;6.788;2022-11-20T04:19:53;19.50;59.80
909;DHT22;441;51.192;6.788;2022-11-20T04:22:21;19.50;59.80
909;DHT22;441;51.192;6.788;2022-11-20T04:24:48;19.50;59.80
909;DHT22;441;51.192;6.788;2022-11-20T04:27:15;19.40;59.90
909;DHT22;441;51.192;6.788;2022-11-20T04:29:42;19.40;60.00
909;DHT22;441;51.192;6.788;2022-11-20T04:32:08;19.40;60.00
909;DHT22;441;51.192;6.788;2022-11-20T04:34:35;19.40;60.00
909;DHT22;441;51.192;6.788;2022-11-20T04:37:02;19.40;60.00
909;DHT22;441;51.192;6.788;2022-11-20T04:39:30;19.40;60.00
909;DHT22;441;51.192;6.788;2022-11-20T04:41:57;19.40;60.00
909;DHT22;441;51.192;6.788;2022-11-20T04:44:38;19.40;60.00
909;DHT22;441;51.192;6.788;2022-11-20T04:47:05;19.40;60.00
909;DHT22;441;51.192;6.788;2022-11-20T04:49:32;19.40;60.10
909;DHT22;441;51.192;6.788;2022-11-20T04:51:59;19.40;60.10
909;DHT22;441;51.192;6.788;2022-11-20T04:54:26;19.30;60.00
909;DHT22;441;51.192;6.788;2022-11-20T04:56:54;19.40;60.10
909;DHT22;441;51.192;6.788;2022-11-20T04:59:21;19.30;60.00
909;DHT22;441;51.192;6.788;2022-11-20T05:01:48;19.30;60.10
909;DHT22;441;51.192;6.788;2022-11-20T05:04:15;19.40;60.20
909;DHT22;441;51.192;6.788;2022-11-20T05:06:42;19.30;60.10
909;DHT22;441;51.192;6.788;2022-11-20T05:09:09;19.30;60.10
909;DHT22;441;51.192;6.788;2022-11-20T05:11:35;19.30;60.10
909;DHT22;441;51.192;6.788;2022-11-20T05:14:04;19.30;60.10
909;DHT22;441;51.192;6.788;2022-11-20T05:16:30;19.30;60.20
909;DHT22;441;51.192;6.788;2022-11-20T05:18:57;19.30;60.20
909;DHT22;441;51.192;6.788;2022-11-20T05:21:24;19.30;60.20
909;DHT22;441;51.192;6.788;2022-11-20T05:23:51;19.30;60.20
909;DHT22;441;51.192;6.788;2022-11-20T05:26:19;19.30;60.10
909;DHT22;441;51.192;6.788;2022-11-20T05:28:47;19.30;60.20
909;DHT22;441;51.192;6.788;2022-11-20T05:31:17;19.30;60.20
909;DHT22;441;51.192;6.788;2022-11-20T05:33:45;19.30;60.20
909;DHT22;441;51.192;6.788;2022-11-20T05:36:13;19.30;60.20
909;DHT22;441;51.192;6.788;2022-11-20T05:38:40;19.30;61.00
909;DHT22;441;51.192;6.788;2022-11-20T05:41:09;19.20;60.10
909;DHT22;441;51.192;6.788;2022-11-20T05:43:36;19.20;60.10
909;DHT22;441;51.192;6.788;2022-11-20T05:46:04;19.20;60.10
909;DHT22;441;51.192;6.788;2022-11-20T05:48:33;19.20;60.20
909;DHT22;441;51.192;6.788;2022-11-20T05:51:02;19.20;60.20
909;DHT22;441;51.192;6.788;2022-11-20T05:53:30;19.20;60.20
909;DHT22;441;51.192;6.788;2022-11-20T05:55:57;19.20;60.20
909;DHT22;441;51.192;6.788;2022-11-20T05:58:24;19.20;60.20
909;DHT22;441;51.192;6.788;2022-11-20T06:00:51;19.20;60.30
909;DHT22;441;51.192;6.788;2022-11-20T06:03:18;19.20;60.30
909;DHT22;441;51.192;6.788;2022-11-20T06:05:47;19.20;60.40
909;DHT22;441;51.192;6.788;2022-11-20T06:08:13;19.20;60.30
909;DHT22;441;51.192;6.788;2022-11-20T06:10:40;19.20;60.40
909;DHT22;441;51.192;6.788;2022-11-20T06:13:07;19.20;60.50
909;DHT22;441;51.192;6.788;2022-11-20T06:15:34;19.20;60.50
909;DHT22;441;51.192;6.788;2022-11-20T06:18:01;19.20;60.50
909;DHT22;441;51.192;6.788;2022-11-20T06:20:27;19.10;60.30
909;DHT22;441;51.192;6.788;2022-11-20T06:22:56;19.10;60.40
909;DHT22;441;51.192;6.788;2022-11-20T06:25:22;19.10;60.50
909;DHT22;441;51.192;6.788;2022-11-20T06:27:49;19.10;60.50
909;DHT22;441;51.192;6.788;2022-11-20T06:30:16;19.10;60.50
909;DHT22;441;51.192;6.788;2022-11-20T06:32:43;19.10;60.50
909;DHT22;441;51.192;6.788;2022-11-20T06:35:10;19.10;60.50
909;DHT22;441;51.192;6.788;2022-11-20T06:37:37;19.10;61.30
909;DHT22;441;51.192;6.788;2022-11-20T06:52:24;19.10;60.10
909;DHT22;441;51.192;6.788;2022-11-20T06:54:50;19.70;59.60
909;DHT22;441;51.192;6.788;2022-11-20T06:57:17;19.70;59.50
909;DHT22;441;51.192;6.788;2022-11-20T06:59:44;19.70;59.50
909;DHT22;441;51.192;6.788;2022-11-20T07:02:11;19.70;59.50
909;DHT22;441;51.192;6.788;2022-11-20T07:04:38;19.60;59.70
909;DHT22;441;51.192;6.788;2022-11-20T07:07:05;19.60;59.60
909;DHT22;441;51.192;6.788;2022-11-20T07:09:33;19.60;60.10
909;DHT22;441;51.192;6.788;2022-11-20T07:12:00;19.60;60.10
909;DHT22;441;51.192;6.788;2022-11-20T07:14:27;19.60;59.90
909;DHT22;441;51.192;6.788;2022-11-20T07:16:54;19.70;60.30
909;DHT22;441;51.192;6.788;2022-11-20T07:19:22;19.80;60.10
909;DHT22;441;51.192;6.788;2022-11-20T07:21:49;19.80;59.60
909;DHT22;441;51.192;6.788;2022-11-20T07:24:17;19.80;59.30
909;DHT22;441;51.192;6.788;2022-11-20T07:26:47;19.90;59.20
909;DHT22;441;51.192;6.788;2022-11-20T07:29:14;20.00;59.10
909;DHT22;441;51.192;6.788;2022-11-20T07:31:42;20.10;59.00
909;DHT22;441;51.192;6.788;2022-11-20T07:34:09;20.10;58.80
909;DHT22;441;51.192;6.788;2022-11-20T07:36:36;20.20;58.80
909;DHT22;441;51.192;6.788;2022-11-20T07:39:03;20.30;58.70
909;DHT22;441;51.192;6.788;2022-11-20T07:41:30;20.30;58.60
909;DHT22;441;51.192;6.788;2022-11-20T07:43:58;20.40;59.10
909;DHT22;441;51.192;6.788;2022-11-20T07:46:25;20.40;59.00
909;DHT22;441;51.192;6.788;2022-11-20T07:48:52;20.50;58.30
909;DHT22;441;51.192;6.788;2022-11-20T07:51:19;20.50;58.20
909;DHT22;441;51.192;6.788;2022-11-20T07:53:46;20.50;58.10
909;DHT22;441;51.192;6.788;2022-11-20T07:56:13;20.60;58.10
909;DHT22;441;51.192;6.788;2022-11-20T07:58:40;20.60;58.00
909;DHT22;441;51.192;6.788;2022-11-20T08:01:09;20.70;57.80
909;DHT22;441;51.192;6.788;2022-11-20T08:03:36;20.70;57.70
909;DHT22;441;51.192;6.788;2022-11-20T08:06:04;20.80;57.60
909;DHT22;441;51.192;6.788;2022-11-20T08:08:31;20.80;58.00
909;DHT22;441;51.192;6.788;2022-11-20T08:10:58;20.80;58.10
909;DHT22;441;51.192;6.788;2022-11-20T08:13:46;20.90;57.60
909;DHT22;441;51.192;6.788;2022-11-20T08:16:32;20.90;57.30
909;DHT22;441;51.192;6.788;2022-11-20T08:18:59;20.90;57.10
909;DHT22;441;51.192;6.788;2022-11-20T08:21:26;20.90;57.10
909;DHT22;441;51.192;6.788;2022-11-20T08:23:53;20.90;57.00
909;DHT22;441;51.192;6.788;2022-11-20T08:26:21;20.90;56.90
909;DHT22;441;51.192;6.788;2022-11-20T08:28:48;20.90;56.80
909;DHT22;441;51.192;6.788;2022-11-20T08:31:15;20.90;56.80
909;DHT22;441;51.192;6.788;2022-11-20T08:33:43;20.90;56.80
909;DHT22;441;51.192;6.788;2022-11-20T08:36:10;20.90;56.80
909;DHT22;441;51.192;6.788;2022-11-20T08:38:37;20.90;56.70
909;DHT22;441;51.192;6.788;2022-11-20T08:41:05;20.90;56.70
909;DHT22;441;51.192;6.788;2022-11-20T08:43:52;20.90;56.70
909;DHT22;441;51.192;6.788;2022-11-20T08:46:20;20.80;56.60
909;DHT22;441;51.192;6.788;2022-11-20T08:48:49;20.80;56.80
909;DHT22;441;51.192;6.788;2022-11-20T08:51:16;20.70;56.80
909;DHT22;441;51.192;6.788;2022-11-20T08:53:43;20.70;57.00
909;DHT22;441;51.192;6.788;2022-11-20T08:56:10;20.70;57.10
909;DHT22;441;51.192;6.788;2022-11-20T08:58:38;20.60;57.10
909;DHT22;441;51.192;6.788;2022-11-20T09:01:05;20.60;57.20
909;DHT22;441;51.192;6.788;2022-11-20T09:03:32;20.60;57.30
909;DHT22;441;51.192;6.788;2022-11-20T09:06:02;20.60;57.40
909;DHT22;441;51.192;6.788;2022-11-20T09:08:29;20.60;57.60
909;DHT22;441;51.192;6.788;2022-11-20T09:10:57;20.50;57.90
909;DHT22;441;51.192;6.788;2022-11-20T09:13:26;20.50;58.10
909;DHT22;441;51.192;6.788;2022-11-20T09:15:54;20.60;58.80
909;DHT22;441;51.192;6.788;2022-11-20T09:18:21;20.60;59.10
909;DHT22;441;51.192;6.788;2022-11-20T09:20:48;20.70;59.00
909;DHT22;441;51.192;6.788;2022-11-20T09:23:17;20.80;58.40
909;DHT22;441;51.192;6.788;2022-11-20T09:25:44;20.90;58.00
909;DHT22;441;51.192;6.788;2022-11-20T09:28:11;20.90;57.70
909;DHT22;441;51.192;6.788;2022-11-20T09:30:37;21.00;57.40
909;DHT22;441;51.192;6.788;2022-11-20T09:33:05;20.90;57.70
909;DHT22;441;51.192;6.788;2022-11-20T09:35:32;20.90;57.00
909;DHT22;441;51.192;6.788;2022-11-20T09:38:04;20.90;57.60
909;DHT22;441;51.192;6.788;2022-11-20T09:40:34;20.90;56.80
909;DHT22;441;51.192;6.788;2022-11-20T09:43:05;20.90;56.80
909;DHT22;441;51.192;6.788;2022-11-20T09:45:47;20.90;57.10
909;DHT22;441;51.192;6.788;2022-11-20T09:48:35;20.90;57.50
909;DHT22;441;51.192;6.788;2022-11-20T09:51:08;20.90;57.20
909;DHT22;441;51.192;6.788;2022-11-20T09:53:46;20.90;57.00
909;DHT22;441;51.192;6.788;2022-11-20T09:56:20;20.90;56.90
909;DHT22;441;51.192;6.788;2022-11-20T09:58:50;20.90;57.30
909;DHT22;441;51.192;6.788;2022-11-20T10:01:18;20.90;56.80
909;DHT22;441;51.192;6.788;2022-11-20T10:03:52;20.90;56.80
909;DHT22;441;51.192;6.788;2022-11-20T10:06:27;20.80;56.70
909;DHT22;441;51.192;6.788;2022-11-20T10:09:13;20.80;56.80
909;DHT22;441;51.192;6.788;2022-11-20T10:11:52;20.80;56.70
909;DHT22;441;51.192;6.788;2022-11-20T10:14:28;20.70;57.20
909;DHT22;441;51.192;6.788;2022-11-20T10:17:03;20.70;56.70
909;DHT22;441;51.192;6.788;2022-11-20T10:19:51;20.70;56.80
909;DHT22;441;51.192;6.788;2022-11-20T10:22:34;20.70;56.80
909;DHT22;441;51.192;6.788;2022-11-20T10:25:12;20.60;56.70
909;DHT22;441;51.192;6.788;2022-11-20T10:28:14;20.60;56.80
909;DHT22;441;51.192;6.788;2022-11-20T10:30:44;20.60;56.80
909;DHT22;441;51.192;6.788;2022-11-20T10:33:16;20.50;56.70
909;DHT22;441;51.192;6.788;2022-11-20T10:35:49;20.50;57.30
909;DHT22;441;51.192;6.788;2022-11-20T10:38:21;20.50;56.80
909;DHT22;441;51.192;6.788;2022-11-20T10:40:51;20.50;56.90
909;DHT22;441;51.192;6.788;2022-11-20T10:43:23;20.40;57.30
909;DHT22;441;51.192;6.788;2022-11-20T10:45:58;20.30;56.90
909;DHT22;441;51.192;6.788;2022-11-20T10:48:26;20.30;57.20
909;DHT22;441;51.192;6.788;2022-11-20T10:51:10;20.30;57.50
909;DHT22;441;51.192;6.788;2022-11-20T10:53:55;20.30;57.70
909;DHT22;441;51.192;6.788;2022-11-20T10:56:30;20.30;57.60
909;DHT22;441;51.192;6.788;2022-11-20T10:59:12;20.30;57.70
909;DHT22;441;51.192;6.788;2022-11-20T11:01:42;20.30;58.10
909;DHT22;441;51.192;6.788;2022-11-20T11:04:23;20.30;58.20
909;DHT22;441;51.192;6.788;2022-11-20T11:06:56;20.40;57.90
909;DHT22;441;51.192;6.788;2022-11-20T11:09:32;20.50;58.50
909;DHT22;441;51.192;6.788;2022-11-20T11:12:00;20.60;58.30
909;DHT22;441;51.192;6.788;2022-11-20T11:14:29;20.70;58.20
909;DHT22;441;51.192;6.788;2022-11-20T11:16:57;20.70;58.00
909;DHT22;441;51.192;6.788;2022-11-20T11:19:24;20.80;57.90
909;DHT22;441;51.192;6.788;2022-11-20T11:21:53;20.80;57.70
909;DHT22;441;51.192;6.788;2022-11-20T11:24:23;20.90;57.60
909;DHT22;441;51.192;6.788;2022-11-20T11:26:59;20.90;57.40
909;DHT22;441;51.192;6.788;2022-11-20T11:29:31;20.90;57.20
909;DHT22;441;51.192;6.788;2022-11-20T11:32:05;21.00;57.20
909;DHT22;441;51.192;6.788;2022-11-20T11:34:32;21.00;57.00
909;DHT22;441;51.192;6.788;2022-11-20T11:37:00;21.00;56.90
909;DHT22;441;51.192;6.788;2022-11-20T11:39:29;21.00;56.80
909;DHT22;441;51.192;6.788;2022-11-20T11:41:57;21.10;56.80
909;DHT22;441;51.192;6.788;2022-11-20T11:44:28;21.10;56.70
909;DHT22;441;51.192;6.788;2022-11-20T11:47:21;21.10;56.60
909;DHT22;441;51.192;6.788;2022-11-20T11:49:48;21.10;56.60
909;DHT22;441;51.192;6.788;2022-11-20T11:52:18;21.20;56.70
909;DHT22;441;51.192;6.788;2022-11-20T11:54:48;21.20;56.80
909;DHT22;441;51.192;6.788;2022-11-20T11:57:22;21.20;56.30
909;DHT22;441;51.192;6.788;2022-11-20T12:00:00;21.30;57.00
909;DHT22;441;51.192;6.788;2022-11-20T12:02:38;21.40;57.00
909;DHT22;441;51.192;6.788;2022-11-20T12:05:17;21.40;56.40
909;DHT22;441;51.192;6.788;2022-11-20T12:07:47;21.50;56.30
909;DHT22;441;51.192;6.788;2022-11-20T12:10:22;21.60;56.40
909;DHT22;441;51.192;6.788;2022-11-20T12:12:53;21.70;56.30
909;DHT22;441;51.192;6.788;2022-11-20T12:15:30;21.80;56.70
909;DHT22;441;51.192;6.788;2022-11-20T12:17:59;21.90;56.10
909;DHT22;441;51.192;6.788;2022-11-20T12:20:29;22.00;55.90
909;DHT22;441;51.192;6.788;2022-11-20T12:23:03;22.00;55.90
909;DHT22;441;51.192;6.788;2022-11-20T12:25:35;22.10;55.70
909;DHT22;441;51.192;6.788;2022-11-20T12:28:30;22.10;55.40
909;DHT22;441;51.192;6.788;2022-11-20T12:31:16;22.20;55.90
909;DHT22;441;51.192;6.788;2022-11-20T12:33:58;22.20;55.30
909;DHT22;441;51.192;6.788;2022-11-20T12:36:34;22.20;55.50
909;DHT22;441;51.192;6.788;2022-11-20T12:42:08;22.20;55.20
909;DHT22;441;51.192;6.788;2022-11-20T12:48:27;22.30;55.80
909;DHT22;441;51.192;6.788;2022-11-20T12:51:15;22.50;55.80
909;DHT22;441;51.192;6.788;2022-11-20T12:53:54;22.50;55.70
909;DHT22;441;51.192;6.788;2022-11-20T12:56:31;22.60;55.60
909;DHT22;441;51.192;6.788;2022-11-20T12:59:16;22.50;56.20
909;DHT22;441;51.192;6.788;2022-11-20T13:01:49;22.60;57.60
909;DHT22;441;51.192;6.788;2022-11-20T13:04:29;22.60;57.50
909;DHT22;441;51.192;6.788;2022-11-20T13:07:02;22.50;57.00
909;DHT22;441;51.192;6.788;2022-11-20T13:09:30;22.50;57.90
909;DHT22;441;51.192;6.788;2022-11-20T13:12:06;22.60;57.80
909;DHT22;441;51.192;6.788;2022-11-20T13:14:39;22.60;58.00
909;DHT22;441;51.192;6.788;2022-11-20T13:17:11;22.60;58.20
909;DHT22;441;51.192;6.788;2022-11-20T13:19:41;22.60;57.80
909;DHT22;441;51.192;6.788;2022-11-20T13:22:09;22.60;57.60
909;DHT22;441;51.192;6.788;2022-11-20T13:24:36;22.60;57.40
909;DHT22;441;51.192;6.788;2022-11-20T13:27:16;22.60;57.50
909;DHT22;441;51.192;6.788;2022-11-20T13:32:30;22.60;57.40
909;DHT22;441;51.192;6.788;2022-11-20T13:35:00;22.60;57.00
909;DHT22;441;51.192;6.788;2022-11-20T13:37:30;22.60;56.70
909;DHT22;441;51.192;6.788;2022-11-20T13:40:22;22.60;56.80
909;DHT22;441;51.192;6.788;2022-11-20T13:42:56;22.60;57.00
909;DHT22;441;51.192;6.788;2022-11-20T13:45:29;22.60;56.90
909;DHT22;441;51.192;6.788;2022-11-20T13:47:57;22.60;56.90
909;DHT22;441;51.192;6.788;2022-11-20T13:50:43;22.60;56.80
909;DHT22;441;51.192;6.788;2022-11-20T13:53:26;22.60;56.60
909;DHT22;441;51.192;6.788;2022-11-20T13:56:01;22.60;56.70
909;DHT22;441;51.192;6.788;2022-11-20T13:58:43;22.60;56.60
909;DHT22;441;51.192;6.788;2022-11-20T14:01:16;22.50;56.50
909;DHT22;441;51.192;6.788;2022-11-20T14:03:43;22.60;56.30
909;DHT22;441;51.192;6.788;2022-11-20T14:06:14;22.50;56.80
909;DHT22;441;51.192;6.788;2022-11-20T14:08:46;22.50;56.20
909;DHT22;441;51.192;6.788;2022-11-20T14:11:16;22.50;56.30
909;DHT22;441;51.192;6.788;2022-11-20T14:13:58;22.50;56.10
909;DHT22;441;51.192;6.788;2022-11-20T14:16:27;22.50;56.00
909;DHT22;441;51.192;6.788;2022-11-20T14:18:55;22.40;55.80
909;DHT22;441;51.192;6.788;2022-11-20T14:21:23;22.40;55.80
909;DHT22;441;51.192;6.788;2022-11-20T14:23:54;22.40;55.80
909;DHT22;441;51.192;6.788;2022-11-20T14:26:29;22.40;55.70
909;DHT22;441;51.192;6.788;2022-11-20T14:28:56;22.40;55.90
909;DHT22;441;51.192;6.788;2022-11-20T14:31:24;22.40;55.90
909;DHT22;441;51.192;6.788;2022-11-20T14:33:53;22.30;55.50
909;DHT22;441;51.192;6.788;2022-11-20T14:36:22;22.30;55.90
909;DHT22;441;51.192;6.788;2022-11-20T14:38:50;22.40;56.00
909;DHT22;441;51.192;6.788;2022-11-20T14:41:20;22.40;55.80
909;DHT22;441;51.192;6.788;2022-11-20T14:43:51;22.50;56.10
909;DHT22;441;51.192;6.788;2022-11-20T14:46:19;22.50;55.90
909;DHT22;441;51.192;6.788;2022-11-20T14:48:49;22.50;55.80
909;DHT22;441;51.192;6.788;2022-11-20T14:51:29;22.50;55.70
909;DHT22;441;51.192;6.788;2022-11-20T14:54:08;22.60;55.70
909;DHT22;441;51.192;6.788;2022-11-20T14:56:36;22.60;55.60
909;DHT22;441;51.192;6.788;2022-11-20T14:59:04;22.60;55.60
909;DHT22;441;51.192;6.788;2022-11-20T15:01:32;22.60;55.60
909;DHT22;441;51.192;6.788;2022-11-20T15:04:01;22.60;55.60
909;DHT22;441;51.192;6.788;2022-11-20T15:06:28;22.60;55.60
909;DHT22;441;51.192;6.788;2022-11-20T15:08:57;22.60;56.10
909;DHT22;441;51.192;6.788;2022-11-20T15:11:29;22.60;55.60
909;DHT22;441;51.192;6.788;2022-11-20T15:14:02;22.60;55.50
909;DHT22;441;51.192;6.788;2022-11-20T15:16:30;22.60;55.50
909;DHT22;441;51.192;6.788;2022-11-20T15:18:57;22.60;55.70
909;DHT22;441;51.192;6.788;2022-11-20T15:21:24;22.60;55.60
909;DHT22;441;51.192;6.788;2022-11-20T15:23:51;22.60;55.60
909;DHT22;441;51.192;6.788;2022-11-20T15:26:22;22.60;55.50
909;DHT22;441;51.192;6.788;2022-11-20T15:28:50;22.60;55.50
909;DHT22;441;51.192;6.788;2022-11-20T15:31:20;22.60;55.60
909;DHT22;441;51.192;6.788;2022-11-20T15:33:47;22.60;55.60
909;DHT22;441;51.192;6.788;2022-11-20T15:36:14;22.60;55.60
909;DHT22;441;51.192;6.788;2022-11-20T15:38:41;22.60;55.60
909;DHT22;441;51.192;6.788;2022-11-20T15:41:08;22.60;55.60
909;DHT22;441;51.192;6.788;2022-11-20T15:43:35;22.60;56.30
909;DHT22;441;51.192;6.788;2022-11-20T15:46:04;22.50;56.50
909;DHT22;441;51.192;6.788;2022-11-20T15:48:36;22.40;55.50
909;DHT22;441;51.192;6.788;2022-11-20T15:51:11;22.30;55.80
909;DHT22;441;51.192;6.788;2022-11-20T15:53:40;22.30;55.70
909;DHT22;441;51.192;6.788;2022-11-20T15:56:11;22.30;55.70
909;DHT22;441;51.192;6.788;2022-11-20T15:58:38;22.30;55.80
909;DHT22;441;51.192;6.788;2022-11-20T16:01:05;22.30;56.20
909;DHT22;441;51.192;6.788;2022-11-20T16:03:33;22.30;55.60
909;DHT22;441;51.192;6.788;2022-11-20T16:06:00;22.20;56.00
909;DHT22;441;51.192;6.788;2022-11-20T16:08:27;22.10;56.40
909;DHT22;441;51.192;6.788;2022-11-20T16:10:54;22.10;56.50
909;DHT22;441;51.192;6.788;2022-11-20T16:13:21;22.10;56.90
909;DHT22;441;51.192;6.788;2022-11-20T16:16:07;22.20;56.80
909;DHT22;441;51.192;6.788;2022-11-20T16:18:36;22.10;57.00
909;DHT22;441;51.192;6.788;2022-11-20T16:21:03;22.10;57.10
909;DHT22;441;51.192;6.788;2022-11-20T16:23:31;22.10;57.30
909;DHT22;441;51.192;6.788;2022-11-20T16:25:58;22.00;57.30
909;DHT22;441;51.192;6.788;2022-11-20T16:28:25;21.90;57.50
909;DHT22;441;51.192;6.788;2022-11-20T16:30:52;21.80;57.70
909;DHT22;441;51.192;6.788;2022-11-20T16:33:18;21.70;57.70
909;DHT22;441;51.192;6.788;2022-11-20T16:35:47;21.70;57.80
909;DHT22;441;51.192;6.788;2022-11-20T16:38:13;21.60;57.90
909;DHT22;441;51.192;6.788;2022-11-20T16:40:40;21.60;58.10
909;DHT22;441;51.192;6.788;2022-11-20T16:43:09;21.50;58.40
909;DHT22;441;51.192;6.788;2022-11-20T16:45:43;21.50;59.10
909;DHT22;441;51.192;6.788;2022-11-20T16:48:15;21.50;58.90
909;DHT22;441;51.192;6.788;2022-11-20T16:50:48;21.40;59.20
909;DHT22;441;51.192;6.788;2022-11-20T16:53:16;21.40;60.00
909;DHT22;441;51.192;6.788;2022-11-20T16:55:43;21.50;60.60
909;DHT22;441;51.192;6.788;2022-11-20T16:58:10;21.50;61.70
909;DHT22;441;51.192;6.788;2022-11-20T17:00:38;21.60;62.00
909;DHT22;441;51.192;6.788;2022-11-20T17:03:06;21.60;62.00
909;DHT22;441;51.192;6.788;2022-11-20T17:05:34;21.70;61.80
909;DHT22;441;51.192;6.788;2022-11-20T17:08:03;21.70;61.70
909;DHT22;441;51.192;6.788;2022-11-20T17:10:30;21.80;61.30
909;DHT22;441;51.192;6.788;2022-11-20T17:12:57;21.80;60.90